VTCC/CNX METAR and TAF weather

Enter ICAO airport designator
Station Type Date Time Source
VTCC METAR 2019/06/27 10:00 UTC NOAA

VTCC 271000Z 20010KT 9999 BKN035 32/22 Q1003 NOSIG


Station Type Date Time Source
VTCC Decoded METAR 2019/06/27 10:00 UTC NOAA

Chiang Mai, Thailand (VTCC) 18-47N 098-59E 314M
Jun 27, 2019 - 06:00 AM EDT / 2019.06.27 1000 UTC
Wind: from the SSW (200 degrees) at 12 MPH (10 KT):0
Visibility: greater than 7 mile(s):0
Sky conditions: mostly cloudy
Temperature: 89 F (32 C)
Heat index: 95.0 F (35.0 C):1
Dew Point: 71 F (22 C)
Relative Humidity: 55%
Pressure (altimeter): 29.62 in. Hg (1003 hPa)
ob: VTCC 271000Z 20010KT 9999 BKN035 32/22 Q1003 NOSIG
cycle: 10

Station Type Date Time Source
VTCC TAF 2019/06/27 06:36 UTC NOAA

TAF VTCC 270500Z 2706/2812 20005KT 9999 SCT035
TEMPO 2706/2712 VRB15G25KT 5000 TSRA FEW020CB BKN035
TEMPO 2806/2812 VRB15G25KT 5000 TSRA FEW020CB BKN035

Example: see airport list